sensor_id;sensor_type;location;lat;lon;timestamp;P1;durP1;ratioP1;P2;durP2;ratioP2
56307;SDS011;42217;50.422;7.210;2023-04-07T00:01:44;168.90;;;160.20;;
56307;SDS011;42217;50.422;7.210;2023-04-07T00:04:10;170.67;;;161.87;;
56307;SDS011;42217;50.422;7.210;2023-04-07T00:06:36;172.47;;;164.13;;
56307;SDS011;42217;50.422;7.210;2023-04-07T00:09:01;167.07;;;158.63;;
56307;SDS011;42217;50.422;7.210;2023-04-07T00:11:27;174.47;;;166.03;;
56307;SDS011;42217;50.422;7.210;2023-04-07T00:13:53;171.33;;;162.67;;
56307;SDS011;42217;50.422;7.210;2023-04-07T00:16:19;184.73;;;175.37;;
56307;SDS011;42217;50.422;7.210;2023-04-07T00:18:45;175.77;;;166.90;;
56307;SDS011;42217;50.422;7.210;2023-04-07T00:21:11;178.77;;;169.73;;
56307;SDS011;42217;50.422;7.210;2023-04-07T00:23:36;174.73;;;165.77;;
56307;SDS011;42217;50.422;7.210;2023-04-07T00:26:02;178.83;;;169.87;;
56307;SDS011;42217;50.422;7.210;2023-04-07T00:28:27;171.10;;;162.50;;
56307;SDS011;42217;50.422;7.210;2023-04-07T00:30:53;172.70;;;163.77;;
56307;SDS011;42217;50.422;7.210;2023-04-07T00:33:19;169.07;;;160.40;;
56307;SDS011;42217;50.422;7.210;2023-04-07T00:35:44;174.80;;;165.77;;
56307;SDS011;42217;50.422;7.210;2023-04-07T00:38:10;158.07;;;150.23;;
56307;SDS011;42217;50.422;7.210;2023-04-07T00:40:36;174.63;;;165.80;;
56307;SDS011;42217;50.422;7.210;2023-04-07T00:43:01;164.63;;;156.47;;
56307;SDS011;42217;50.422;7.210;2023-04-07T00:45:27;163.33;;;155.13;;
56307;SDS011;42217;50.422;7.210;2023-04-07T00:47:53;174.13;;;165.53;;
56307;SDS011;42217;50.422;7.210;2023-04-07T00:50:20;177.73;;;168.63;;
56307;SDS011;42217;50.422;7.210;2023-04-07T00:52:46;170.30;;;161.73;;
56307;SDS011;42217;50.422;7.210;2023-04-07T00:55:11;174.33;;;165.73;;
56307;SDS011;42217;50.422;7.210;2023-04-07T00:57:37;177.97;;;169.17;;
56307;SDS011;42217;50.422;7.210;2023-04-07T01:00:03;169.57;;;161.00;;
56307;SDS011;42217;50.422;7.210;2023-04-07T01:07:57;209.20;;;199.17;;
56307;SDS011;42217;50.422;7.210;2023-04-07T01:10:34;175.40;;;166.77;;
56307;SDS011;42217;50.422;7.210;2023-04-07T01:13:09;171.00;;;162.47;;
56307;SDS011;42217;50.422;7.210;2023-04-07T01:15:55;170.07;;;161.90;;
56307;SDS011;42217;50.422;7.210;2023-04-07T01:18:31;167.83;;;159.57;;
56307;SDS011;42217;50.422;7.210;2023-04-07T01:21:13;174.50;;;165.97;;
56307;SDS011;42217;50.422;7.210;2023-04-07T01:26:19;174.27;;;165.83;;
56307;SDS011;42217;50.422;7.210;2023-04-07T01:28:55;182.57;;;173.73;;
56307;SDS011;42217;50.422;7.210;2023-04-07T01:31:22;176.37;;;167.87;;
56307;SDS011;42217;50.422;7.210;2023-04-07T01:33:50;179.60;;;171.10;;
56307;SDS011;42217;50.422;7.210;2023-04-07T01:36:19;208.13;;;198.40;;
56307;SDS011;42217;50.422;7.210;2023-04-07T01:38:46;193.63;;;184.60;;
56307;SDS011;42217;50.422;7.210;2023-04-07T01:41:13;175.63;;;167.13;;
56307;SDS011;42217;50.422;7.210;2023-04-07T01:43:40;169.13;;;161.13;;
56307;SDS011;42217;50.422;7.210;2023-04-07T01:46:07;184.47;;;175.73;;
56307;SDS011;42217;50.422;7.210;2023-04-07T01:48:33;166.47;;;158.63;;
56307;SDS011;42217;50.422;7.210;2023-04-07T01:51:01;238.37;;;227.30;;
56307;SDS011;42217;50.422;7.210;2023-04-07T01:53:29;158.50;;;151.20;;
56307;SDS011;42217;50.422;7.210;2023-04-07T01:55:55;156.03;;;148.73;;
56307;SDS011;42217;50.422;7.210;2023-04-07T01:58:21;163.77;;;156.17;;
56307;SDS011;42217;50.422;7.210;2023-04-07T02:00:47;222.23;;;212.20;;
56307;SDS011;42217;50.422;7.210;2023-04-07T02:03:19;167.00;;;159.27;;
56307;SDS011;42217;50.422;7.210;2023-04-07T02:05:53;171.37;;;163.23;;
56307;SDS011;42217;50.422;7.210;2023-04-07T02:08:21;162.70;;;155.20;;
56307;SDS011;42217;50.422;7.210;2023-04-07T02:10:51;185.47;;;176.90;;
56307;SDS011;42217;50.422;7.210;2023-04-07T02:13:19;166.40;;;158.87;;
56307;SDS011;42217;50.422;7.210;2023-04-07T02:15:46;160.00;;;152.50;;
56307;SDS011;42217;50.422;7.210;2023-04-07T02:18:13;209.50;;;199.90;;
56307;SDS011;42217;50.422;7.210;2023-04-07T02:20:41;159.53;;;151.80;;
56307;SDS011;42217;50.422;7.210;2023-04-07T02:23:08;164.63;;;157.03;;
56307;SDS011;42217;50.422;7.210;2023-04-07T02:25:33;166.13;;;158.57;;
56307;SDS011;42217;50.422;7.210;2023-04-07T02:28:02;191.87;;;183.20;;
56307;SDS011;42217;50.422;7.210;2023-04-07T02:30:28;197.37;;;188.13;;
56307;SDS011;42217;50.422;7.210;2023-04-07T02:32:54;182.93;;;174.50;;
56307;SDS011;42217;50.422;7.210;2023-04-07T02:35:20;183.00;;;174.53;;
56307;SDS011;42217;50.422;7.210;2023-04-07T02:37:46;174.33;;;166.20;;
56307;SDS011;42217;50.422;7.210;2023-04-07T02:40:12;171.63;;;163.53;;
56307;SDS011;42217;50.422;7.210;2023-04-07T02:42:38;183.67;;;175.27;;
56307;SDS011;42217;50.422;7.210;2023-04-07T02:45:05;192.83;;;184.13;;
56307;SDS011;42217;50.422;7.210;2023-04-07T02:47:31;179.97;;;171.57;;
56307;SDS011;42217;50.422;7.210;2023-04-07T02:49:58;189.83;;;181.27;;
56307;SDS011;42217;50.422;7.210;2023-04-07T02:52:23;191.17;;;182.60;;
56307;SDS011;42217;50.422;7.210;2023-04-07T02:54:49;171.33;;;163.53;;
56307;SDS011;42217;50.422;7.210;2023-04-07T02:57:15;177.37;;;169.30;;
56307;SDS011;42217;50.422;7.210;2023-04-07T02:59:40;183.77;;;175.37;;
56307;SDS011;42217;50.422;7.210;2023-04-07T03:02:06;189.67;;;180.83;;
56307;SDS011;42217;50.422;7.210;2023-04-07T03:04:32;174.73;;;166.83;;
56307;SDS011;42217;50.422;7.210;2023-04-07T03:06:58;198.87;;;189.83;;
56307;SDS011;42217;50.422;7.210;2023-04-07T03:09:24;184.07;;;175.67;;
56307;SDS011;42217;50.422;7.210;2023-04-07T03:11:50;186.53;;;178.20;;
56307;SDS011;42217;50.422;7.210;2023-04-07T03:14:16;175.17;;;167.17;;
56307;SDS011;42217;50.422;7.210;2023-04-07T03:16:41;181.53;;;173.40;;
56307;SDS011;42217;50.422;7.210;2023-04-07T03:19:07;183.83;;;175.60;;
56307;SDS011;42217;50.422;7.210;2023-04-07T03:21:34;182.10;;;174.00;;
56307;SDS011;42217;50.422;7.210;2023-04-07T03:24:01;188.20;;;179.50;;
56307;SDS011;42217;50.422;7.210;2023-04-07T03:26:27;185.80;;;177.30;;
56307;SDS011;42217;50.422;7.210;2023-04-07T03:28:52;186.83;;;178.23;;
56307;SDS011;42217;50.422;7.210;2023-04-07T03:31:18;179.47;;;171.27;;
56307;SDS011;42217;50.422;7.210;2023-04-07T03:33:44;172.10;;;164.40;;
56307;SDS011;42217;50.422;7.210;2023-04-07T03:36:09;178.90;;;170.97;;
56307;SDS011;42217;50.422;7.210;2023-04-07T03:38:36;170.90;;;162.93;;
56307;SDS011;42217;50.422;7.210;2023-04-07T03:41:01;176.30;;;168.27;;
56307;SDS011;42217;50.422;7.210;2023-04-07T03:43:27;181.73;;;173.53;;
56307;SDS011;42217;50.422;7.210;2023-04-07T03:45:53;174.13;;;166.23;;
56307;SDS011;42217;50.422;7.210;2023-04-07T03:48:18;207.90;;;198.63;;
56307;SDS011;42217;50.422;7.210;2023-04-07T03:50:44;171.53;;;163.77;;
56307;SDS011;42217;50.422;7.210;2023-04-07T03:53:10;182.60;;;174.30;;
56307;SDS011;42217;50.422;7.210;2023-04-07T03:55:39;172.47;;;164.57;;
56307;SDS011;42217;50.422;7.210;2023-04-07T03:58:05;179.23;;;171.00;;
56307;SDS011;42217;50.422;7.210;2023-04-07T04:00:31;184.60;;;176.20;;
56307;SDS011;42217;50.422;7.210;2023-04-07T04:02:57;176.40;;;168.13;;
56307;SDS011;42217;50.422;7.210;2023-04-07T04:05:24;181.63;;;173.47;;
56307;SDS011;42217;50.422;7.210;2023-04-07T04:07:49;181.13;;;172.90;;
56307;SDS011;42217;50.422;7.210;2023-04-07T04:10:17;184.70;;;176.20;;
56307;SDS011;42217;50.422;7.210;2023-04-07T04:12:46;178.63;;;170.57;;
56307;SDS011;42217;50.422;7.210;2023-04-07T04:15:12;187.13;;;178.33;;
56307;SDS011;42217;50.422;7.210;2023-04-07T04:17:39;167.83;;;160.30;;
56307;SDS011;42217;50.422;7.210;2023-04-07T04:20:05;175.97;;;167.97;;
56307;SDS011;42217;50.422;7.210;2023-04-07T04:22:32;175.57;;;167.57;;
56307;SDS011;42217;50.422;7.210;2023-04-07T04:24:58;175.70;;;167.37;;
56307;SDS011;42217;50.422;7.210;2023-04-07T04:27:24;177.70;;;169.63;;
56307;SDS011;42217;50.422;7.210;2023-04-07T04:29:50;170.43;;;162.50;;
56307;SDS011;42217;50.422;7.210;2023-04-07T04:32:16;177.90;;;169.53;;
56307;SDS011;42217;50.422;7.210;2023-04-07T04:34:45;181.10;;;172.87;;
56307;SDS011;42217;50.422;7.210;2023-04-07T04:37:11;190.20;;;181.40;;
56307;SDS011;42217;50.422;7.210;2023-04-07T04:39:37;195.67;;;186.40;;
56307;SDS011;42217;50.422;7.210;2023-04-07T04:42:04;189.60;;;180.47;;
56307;SDS011;42217;50.422;7.210;2023-04-07T04:44:30;181.60;;;173.20;;
56307;SDS011;42217;50.422;7.210;2023-04-07T04:46:56;185.07;;;176.47;;
56307;SDS011;42217;50.422;7.210;2023-04-07T04:49:22;190.77;;;181.87;;
56307;SDS011;42217;50.422;7.210;2023-04-07T04:51:47;189.90;;;180.83;;
56307;SDS011;42217;50.422;7.210;2023-04-07T04:54:13;189.93;;;180.87;;
56307;SDS011;42217;50.422;7.210;2023-04-07T04:56:39;190.37;;;181.40;;
56307;SDS011;42217;50.422;7.210;2023-04-07T04:59:04;186.23;;;177.47;;
56307;SDS011;42217;50.422;7.210;2023-04-07T05:01:30;191.27;;;182.43;;
56307;SDS011;42217;50.422;7.210;2023-04-07T05:03:56;189.70;;;180.53;;
56307;SDS011;42217;50.422;7.210;2023-04-07T05:06:22;183.90;;;175.20;;
56307;SDS011;42217;50.422;7.210;2023-04-07T05:08:47;194.30;;;185.03;;
56307;SDS011;42217;50.422;7.210;2023-04-07T05:11:13;188.23;;;179.33;;
56307;SDS011;42217;50.422;7.210;2023-04-07T05:13:40;183.20;;;174.37;;
56307;SDS011;42217;50.422;7.210;2023-04-07T05:16:06;191.93;;;182.90;;
56307;SDS011;42217;50.422;7.210;2023-04-07T05:18:32;199.87;;;190.23;;
56307;SDS011;42217;50.422;7.210;2023-04-07T05:20:57;194.93;;;185.73;;
56307;SDS011;42217;50.422;7.210;2023-04-07T05:23:23;207.20;;;197.50;;
56307;SDS011;42217;50.422;7.210;2023-04-07T05:25:49;199.20;;;189.43;;
56307;SDS011;42217;50.422;7.210;2023-04-07T05:28:15;202.23;;;192.27;;
56307;SDS011;42217;50.422;7.210;2023-04-07T05:30:40;206.87;;;196.80;;
56307;SDS011;42217;50.422;7.210;2023-04-07T05:33:06;198.57;;;188.73;;
56307;SDS011;42217;50.422;7.210;2023-04-07T05:35:32;215.60;;;204.83;;
56307;SDS011;42217;50.422;7.210;2023-04-07T05:37:57;216.27;;;205.67;;
56307;SDS011;42217;50.422;7.210;2023-04-07T05:40:23;207.77;;;197.53;;
56307;SDS011;42217;50.422;7.210;2023-04-07T05:42:49;214.93;;;203.97;;
56307;SDS011;42217;50.422;7.210;2023-04-07T05:45:15;216.70;;;205.80;;
56307;SDS011;42217;50.422;7.210;2023-04-07T05:47:41;217.23;;;205.63;;
56307;SDS011;42217;50.422;7.210;2023-04-07T05:50:06;204.80;;;194.87;;
56307;SDS011;42217;50.422;7.210;2023-04-07T05:52:32;212.10;;;201.83;;
56307;SDS011;42217;50.422;7.210;2023-04-07T05:54:58;208.37;;;198.17;;
56307;SDS011;42217;50.422;7.210;2023-04-07T05:57:24;209.53;;;198.77;;
56307;SDS011;42217;50.422;7.210;2023-04-07T05:59:52;206.40;;;195.47;;
56307;SDS011;42217;50.422;7.210;2023-04-07T06:02:17;210.43;;;199.73;;
56307;SDS011;42217;50.422;7.210;2023-04-07T06:04:43;200.13;;;189.60;;
56307;SDS011;42217;50.422;7.210;2023-04-07T06:07:08;201.37;;;191.40;;
56307;SDS011;42217;50.422;7.210;2023-04-07T06:09:34;197.57;;;187.27;;
56307;SDS011;42217;50.422;7.210;2023-04-07T06:12:00;192.17;;;182.30;;
56307;SDS011;42217;50.422;7.210;2023-04-07T06:14:28;203.80;;;192.93;;
56307;SDS011;42217;50.422;7.210;2023-04-07T06:16:54;230.50;;;218.80;;
56307;SDS011;42217;50.422;7.210;2023-04-07T06:19:20;197.93;;;187.63;;
56307;SDS011;42217;50.422;7.210;2023-04-07T06:21:46;205.33;;;194.63;;
56307;SDS011;42217;50.422;7.210;2023-04-07T06:24:11;185.97;;;176.40;;
56307;SDS011;42217;50.422;7.210;2023-04-07T06:26:38;201.83;;;191.33;;
56307;SDS011;42217;50.422;7.210;2023-04-07T06:29:04;202.03;;;191.63;;
56307;SDS011;42217;50.422;7.210;2023-04-07T06:31:30;200.53;;;190.43;;
56307;SDS011;42217;50.422;7.210;2023-04-07T06:33:55;195.83;;;185.27;;
56307;SDS011;42217;50.422;7.210;2023-04-07T06:36:21;195.63;;;185.50;;
56307;SDS011;42217;50.422;7.210;2023-04-07T06:38:47;191.63;;;181.37;;
56307;SDS011;42217;50.422;7.210;2023-04-07T06:41:13;191.10;;;180.77;;
56307;SDS011;42217;50.422;7.210;2023-04-07T06:43:41;194.33;;;183.63;;
56307;SDS011;42217;50.422;7.210;2023-04-07T06:46:11;198.10;;;187.57;;
56307;SDS011;42217;50.422;7.210;2023-04-07T06:48:37;197.90;;;187.37;;
56307;SDS011;42217;50.422;7.210;2023-04-07T06:51:02;203.10;;;192.27;;
56307;SDS011;42217;50.422;7.210;2023-04-07T06:53:28;196.30;;;185.73;;
56307;SDS011;42217;50.422;7.210;2023-04-07T06:56:07;198.23;;;187.90;;
56307;SDS011;42217;50.422;7.210;2023-04-07T06:58:39;197.93;;;187.80;;
56307;SDS011;42217;50.422;7.210;2023-04-07T07:01:05;196.43;;;185.87;;
56307;SDS011;42217;50.422;7.210;2023-04-07T07:03:31;218.67;;;207.00;;
56307;SDS011;42217;50.422;7.210;2023-04-07T07:05:57;195.37;;;184.50;;
56307;SDS011;42217;50.422;7.210;2023-04-07T07:08:24;202.27;;;191.57;;
56307;SDS011;42217;50.422;7.210;2023-04-07T07:10:51;185.17;;;174.90;;
56307;SDS011;42217;50.422;7.210;2023-04-07T07:13:21;218.80;;;207.13;;
56307;SDS011;42217;50.422;7.210;2023-04-07T07:15:47;196.70;;;186.33;;
56307;SDS011;42217;50.422;7.210;2023-04-07T07:18:14;204.80;;;193.77;;
56307;SDS011;42217;50.422;7.210;2023-04-07T07:20:40;213.70;;;201.93;;
56307;SDS011;42217;50.422;7.210;2023-04-07T07:23:06;187.13;;;177.00;;
56307;SDS011;42217;50.422;7.210;2023-04-07T07:25:31;197.43;;;186.77;;
56307;SDS011;42217;50.422;7.210;2023-04-07T07:27:57;201.03;;;189.93;;
56307;SDS011;42217;50.422;7.210;2023-04-07T07:30:23;204.97;;;193.83;;
56307;SDS011;42217;50.422;7.210;2023-04-07T07:32:50;202.90;;;191.60;;
56307;SDS011;42217;50.422;7.210;2023-04-07T07:35:17;221.27;;;208.70;;
56307;SDS011;42217;50.422;7.210;2023-04-07T07:37:43;199.60;;;188.80;;
56307;SDS011;42217;50.422;7.210;2023-04-07T07:40:10;174.07;;;164.13;;
56307;SDS011;42217;50.422;7.210;2023-04-07T07:42:36;179.90;;;169.80;;
56307;SDS011;42217;50.422;7.210;2023-04-07T07:45:02;184.13;;;173.50;;
56307;SDS011;42217;50.422;7.210;2023-04-07T07:47:28;177.17;;;167.33;;
56307;SDS011;42217;50.422;7.210;2023-04-07T07:49:53;178.70;;;168.33;;
56307;SDS011;42217;50.422;7.210;2023-04-07T07:52:19;195.60;;;183.97;;
56307;SDS011;42217;50.422;7.210;2023-04-07T07:54:46;200.13;;;188.40;;
56307;SDS011;42217;50.422;7.210;2023-04-07T07:57:12;201.20;;;189.57;;
56307;SDS011;42217;50.422;7.210;2023-04-07T07:59:38;244.43;;;230.83;;
56307;SDS011;42217;50.422;7.210;2023-04-07T08:02:07;191.33;;;180.17;;
56307;SDS011;42217;50.422;7.210;2023-04-07T08:04:34;189.00;;;178.10;;
56307;SDS011;42217;50.422;7.210;2023-04-07T08:07:00;188.57;;;177.73;;
56307;SDS011;42217;50.422;7.210;2023-04-07T08:09:27;180.43;;;170.57;;
56307;SDS011;42217;50.422;7.210;2023-04-07T08:11:52;185.20;;;174.53;;
56307;SDS011;42217;50.422;7.210;2023-04-07T08:14:18;185.87;;;174.57;;
56307;SDS011;42217;50.422;7.210;2023-04-07T08:16:44;192.97;;;182.20;;
56307;SDS011;42217;50.422;7.210;2023-04-07T08:19:10;192.30;;;181.40;;
56307;SDS011;42217;50.422;7.210;2023-04-07T08:21:37;181.53;;;171.17;;
56307;SDS011;42217;50.422;7.210;2023-04-07T08:24:03;183.67;;;173.40;;
56307;SDS011;42217;50.422;7.210;2023-04-07T08:26:29;171.57;;;161.40;;
56307;SDS011;42217;50.422;7.210;2023-04-07T08:28:55;183.87;;;173.50;;
56307;SDS011;42217;50.422;7.210;2023-04-07T08:31:21;185.23;;;174.50;;
56307;SDS011;42217;50.422;7.210;2023-04-07T08:33:46;195.57;;;184.50;;
56307;SDS011;42217;50.422;7.210;2023-04-07T08:36:12;189.63;;;179.17;;
56307;SDS011;42217;50.422;7.210;2023-04-07T08:38:37;196.43;;;186.00;;
56307;SDS011;42217;50.422;7.210;2023-04-07T08:41:05;175.03;;;164.47;;
56307;SDS011;42217;50.422;7.210;2023-04-07T08:43:34;170.77;;;161.37;;
56307;SDS011;42217;50.422;7.210;2023-04-07T08:46:01;166.37;;;156.97;;
56307;SDS011;42217;50.422;7.210;2023-04-07T08:48:29;160.27;;;151.33;;
56307;SDS011;42217;50.422;7.210;2023-04-07T08:51:03;178.37;;;168.50;;
56307;SDS011;42217;50.422;7.210;2023-04-07T08:53:39;182.38;;;172.65;;
56307;SDS011;42217;50.422;7.210;2023-04-07T08:56:08;178.97;;;169.33;;
56307;SDS011;42217;50.422;7.210;2023-04-07T08:58:36;183.03;;;173.23;;
56307;SDS011;42217;50.422;7.210;2023-04-07T09:01:03;183.43;;;173.27;;
56307;SDS011;42217;50.422;7.210;2023-04-07T09:03:31;169.20;;;159.80;;
56307;SDS011;42217;50.422;7.210;2023-04-07T09:05:59;170.10;;;161.37;;
56307;SDS011;42217;50.422;7.210;2023-04-07T09:08:26;179.80;;;169.80;;
56307;SDS011;42217;50.422;7.210;2023-04-07T09:10:52;183.03;;;173.33;;
56307;SDS011;42217;50.422;7.210;2023-04-07T09:13:20;184.10;;;174.67;;
56307;SDS011;42217;50.422;7.210;2023-04-07T09:15:50;184.60;;;174.87;;
56307;SDS011;42217;50.422;7.210;2023-04-07T09:18:16;179.13;;;170.27;;
56307;SDS011;42217;50.422;7.210;2023-04-07T09:23:42;169.20;;;160.50;;
56307;SDS011;42217;50.422;7.210;2023-04-07T09:26:26;196.13;;;186.57;;
56307;SDS011;42217;50.422;7.210;2023-04-07T09:31:20;183.13;;;174.07;;
56307;SDS011;42217;50.422;7.210;2023-04-07T09:33:48;162.67;;;154.97;;
56307;SDS011;42217;50.422;7.210;2023-04-07T09:36:14;171.73;;;163.43;;
56307;SDS011;42217;50.422;7.210;2023-04-07T09:38:40;163.60;;;155.30;;
56307;SDS011;42217;50.422;7.210;2023-04-07T09:41:08;168.17;;;160.27;;
56307;SDS011;42217;50.422;7.210;2023-04-07T09:43:35;154.50;;;147.30;;
56307;SDS011;42217;50.422;7.210;2023-04-07T09:46:08;157.20;;;149.50;;
56307;SDS011;42217;50.422;7.210;2023-04-07T09:48:35;152.82;;;145.20;;
56307;SDS011;42217;50.422;7.210;2023-04-07T09:51:06;145.63;;;138.60;;
56307;SDS011;42217;50.422;7.210;2023-04-07T09:53:43;141.97;;;134.93;;
56307;SDS011;42217;50.422;7.210;2023-04-07T09:56:14;124.43;;;118.13;;
56307;SDS011;42217;50.422;7.210;2023-04-07T09:58:42;119.40;;;113.50;;
56307;SDS011;42217;50.422;7.210;2023-04-07T10:01:12;126.90;;;120.63;;
56307;SDS011;42217;50.422;7.210;2023-04-07T10:03:40;127.67;;;121.57;;
56307;SDS011;42217;50.422;7.210;2023-04-07T10:06:06;107.80;;;102.40;;
56307;SDS011;42217;50.422;7.210;2023-04-07T10:08:33;106.60;;;100.90;;
56307;SDS011;42217;50.422;7.210;2023-04-07T10:11:06;155.87;;;148.10;;
56307;SDS011;42217;50.422;7.210;2023-04-07T10:13:35;107.70;;;101.73;;
56307;SDS011;42217;50.422;7.210;2023-04-07T10:16:04;115.93;;;109.63;;
56307;SDS011;42217;50.422;7.210;2023-04-07T10:18:32;110.00;;;104.13;;
56307;SDS011;42217;50.422;7.210;2023-04-07T10:21:00;125.03;;;118.70;;
56307;SDS011;42217;50.422;7.210;2023-04-07T10:26:24;113.20;;;107.23;;
56307;SDS011;42217;50.422;7.210;2023-04-07T10:28:54;127.87;;;121.10;;
56307;SDS011;42217;50.422;7.210;2023-04-07T10:31:26;100.77;;;95.60;;
56307;SDS011;42217;50.422;7.210;2023-04-07T10:33:52;106.33;;;100.70;;
56307;SDS011;42217;50.422;7.210;2023-04-07T10:36:19;113.13;;;107.43;;
56307;SDS011;42217;50.422;7.210;2023-04-07T10:41:34;93.20;;;88.70;;
56307;SDS011;42217;50.422;7.210;2023-04-07T10:44:04;96.27;;;91.30;;
56307;SDS011;42217;50.422;7.210;2023-04-07T10:49:10;185.83;;;177.00;;
56307;SDS011;42217;50.422;7.210;2023-04-07T10:51:37;142.03;;;135.33;;
56307;SDS011;42217;50.422;7.210;2023-04-07T10:59:26;102.63;;;97.63;;
56307;SDS011;42217;50.422;7.210;2023-04-07T11:04:38;114.90;;;108.67;;
56307;SDS011;42217;50.422;7.210;2023-04-07T11:07:05;101.53;;;96.40;;
56307;SDS011;42217;50.422;7.210;2023-04-07T11:09:31;118.53;;;112.33;;
56307;SDS011;42217;50.422;7.210;2023-04-07T11:11:57;119.20;;;112.80;;
56307;SDS011;42217;50.422;7.210;2023-04-07T11:14:23;113.50;;;107.47;;
56307;SDS011;42217;50.422;7.210;2023-04-07T11:16:51;117.70;;;110.93;;
56307;SDS011;42217;50.422;7.210;2023-04-07T11:19:17;131.87;;;124.53;;
56307;SDS011;42217;50.422;7.210;2023-04-07T11:21:43;138.37;;;130.53;;
56307;SDS011;42217;50.422;7.210;2023-04-07T11:24:09;125.43;;;118.73;;
56307;SDS011;42217;50.422;7.210;2023-04-07T11:26:39;126.27;;;119.10;;
56307;SDS011;42217;50.422;7.210;2023-04-07T11:29:05;103.73;;;97.90;;
56307;SDS011;42217;50.422;7.210;2023-04-07T11:31:32;115.27;;;108.87;;
56307;SDS011;42217;50.422;7.210;2023-04-07T11:33:59;116.10;;;109.67;;
56307;SDS011;42217;50.422;7.210;2023-04-07T11:36:36;120.20;;;113.63;;
56307;SDS011;42217;50.422;7.210;2023-04-07T11:39:03;108.65;;;102.40;;
56307;SDS011;42217;50.422;7.210;2023-04-07T11:41:30;118.97;;;111.97;;
56307;SDS011;42217;50.422;7.210;2023-04-07T11:44:07;116.97;;;110.83;;
56307;SDS011;42217;50.422;7.210;2023-04-07T11:46:34;123.60;;;117.13;;
56307;SDS011;42217;50.422;7.210;2023-04-07T11:49:07;131.57;;;124.97;;
56307;SDS011;42217;50.422;7.210;2023-04-07T11:51:34;128.30;;;121.70;;
56307;SDS011;42217;50.422;7.210;2023-04-07T11:54:00;119.73;;;113.80;;
56307;SDS011;42217;50.422;7.210;2023-04-07T11:56:26;104.13;;;99.00;;
56307;SDS011;42217;50.422;7.210;2023-04-07T11:58:52;107.17;;;101.77;;
56307;SDS011;42217;50.422;7.210;2023-04-07T12:01:19;91.47;;;86.87;;
56307;SDS011;42217;50.422;7.210;2023-04-07T12:03:59;87.30;;;82.87;;
56307;SDS011;42217;50.422;7.210;2023-04-07T12:06:30;68.57;;;65.27;;
56307;SDS011;42217;50.422;7.210;2023-04-07T12:09:02;59.70;;;56.43;;
56307;SDS011;42217;50.422;7.210;2023-04-07T12:11:29;70.73;;;66.83;;
56307;SDS011;42217;50.422;7.210;2023-04-07T12:13:56;71.97;;;67.97;;
56307;SDS011;42217;50.422;7.210;2023-04-07T12:16:22;96.13;;;91.17;;
56307;SDS011;42217;50.422;7.210;2023-04-07T12:18:48;96.07;;;90.93;;
56307;SDS011;42217;50.422;7.210;2023-04-07T12:21:15;98.73;;;93.30;;
56307;SDS011;42217;50.422;7.210;2023-04-07T12:23:41;79.27;;;74.80;;
56307;SDS011;42217;50.422;7.210;2023-04-07T12:26:07;70.73;;;66.27;;
56307;SDS011;42217;50.422;7.210;2023-04-07T12:28:34;95.10;;;89.50;;
56307;SDS011;42217;50.422;7.210;2023-04-07T12:31:01;71.77;;;67.87;;
56307;SDS011;42217;50.422;7.210;2023-04-07T12:33:28;67.13;;;63.50;;
56307;SDS011;42217;50.422;7.210;2023-04-07T12:35:54;79.17;;;74.93;;
56307;SDS011;42217;50.422;7.210;2023-04-07T12:38:21;79.00;;;74.77;;
56307;SDS011;42217;50.422;7.210;2023-04-07T12:40:46;69.53;;;65.83;;
56307;SDS011;42217;50.422;7.210;2023-04-07T12:43:12;93.07;;;88.23;;
56307;SDS011;42217;50.422;7.210;2023-04-07T12:45:38;90.37;;;85.37;;
56307;SDS011;42217;50.422;7.210;2023-04-07T12:48:04;78.60;;;73.57;;
56307;SDS011;42217;50.422;7.210;2023-04-07T12:50:29;77.30;;;73.20;;
56307;SDS011;42217;50.422;7.210;2023-04-07T12:52:55;93.60;;;88.57;;
56307;SDS011;42217;50.422;7.210;2023-04-07T12:55:23;69.67;;;65.97;;
56307;SDS011;42217;50.422;7.210;2023-04-07T12:57:49;68.13;;;64.33;;
56307;SDS011;42217;50.422;7.210;2023-04-07T13:00:15;64.53;;;60.90;;
56307;SDS011;42217;50.422;7.210;2023-04-07T13:02:41;64.05;;;60.33;;
56307;SDS011;42217;50.422;7.210;2023-04-07T13:05:07;67.30;;;63.60;;
56307;SDS011;42217;50.422;7.210;2023-04-07T13:07:33;71.18;;;67.30;;
56307;SDS011;42217;50.422;7.210;2023-04-07T13:10:00;73.15;;;69.25;;
56307;SDS011;42217;50.422;7.210;2023-04-07T13:12:26;74.05;;;70.10;;
56307;SDS011;42217;50.422;7.210;2023-04-07T13:14:52;142.60;;;135.40;;
56307;SDS011;42217;50.422;7.210;2023-04-07T13:17:18;80.85;;;76.80;;
56307;SDS011;42217;50.422;7.210;2023-04-07T13:19:44;92.78;;;88.03;;
56307;SDS011;42217;50.422;7.210;2023-04-07T13:22:12;89.85;;;85.40;;
56307;SDS011;42217;50.422;7.210;2023-04-07T13:24:38;85.03;;;80.57;;
56307;SDS011;42217;50.422;7.210;2023-04-07T13:27:04;85.20;;;80.45;;
56307;SDS011;42217;50.422;7.210;2023-04-07T13:29:30;88.55;;;84.25;;
56307;SDS011;42217;50.422;7.210;2023-04-07T13:32:09;93.47;;;88.78;;
56307;SDS011;42217;50.422;7.210;2023-04-07T13:34:37;91.13;;;86.57;;
56307;SDS011;42217;50.422;7.210;2023-04-07T13:37:03;116.32;;;110.60;;
56307;SDS011;42217;50.422;7.210;2023-04-07T13:39:30;88.07;;;83.40;;
56307;SDS011;42217;50.422;7.210;2023-04-07T13:41:57;84.53;;;80.13;;
56307;SDS011;42217;50.422;7.210;2023-04-07T13:44:23;85.73;;;81.10;;
56307;SDS011;42217;50.422;7.210;2023-04-07T13:46:50;94.33;;;89.43;;
56307;SDS011;42217;50.422;7.210;2023-04-07T13:49:16;94.13;;;88.80;;
56307;SDS011;42217;50.422;7.210;2023-04-07T13:51:42;106.73;;;100.63;;
56307;SDS011;42217;50.422;7.210;2023-04-07T13:54:07;93.23;;;88.20;;
56307;SDS011;42217;50.422;7.210;2023-04-07T13:56:33;94.13;;;88.63;;
56307;SDS011;42217;50.422;7.210;2023-04-07T13:59:05;97.60;;;92.17;;
56307;SDS011;42217;50.422;7.210;2023-04-07T14:01:31;116.63;;;110.43;;
56307;SDS011;42217;50.422;7.210;2023-04-07T14:03:59;100.37;;;95.03;;
56307;SDS011;42217;50.422;7.210;2023-04-07T14:06:26;97.77;;;92.40;;
56307;SDS011;42217;50.422;7.210;2023-04-07T14:08:52;104.57;;;98.67;;
56307;SDS011;42217;50.422;7.210;2023-04-07T14:11:18;93.90;;;88.83;;
56307;SDS011;42217;50.422;7.210;2023-04-07T14:13:46;94.57;;;89.50;;
56307;SDS011;42217;50.422;7.210;2023-04-07T14:16:12;87.30;;;82.43;;
56307;SDS011;42217;50.422;7.210;2023-04-07T14:18:38;96.17;;;90.93;;
56307;SDS011;42217;50.422;7.210;2023-04-07T14:21:04;97.27;;;91.93;;
56307;SDS011;42217;50.422;7.210;2023-04-07T14:23:30;106.27;;;100.67;;
56307;SDS011;42217;50.422;7.210;2023-04-07T14:25:58;92.20;;;86.97;;
56307;SDS011;42217;50.422;7.210;2023-04-07T14:28:25;91.83;;;86.37;;
56307;SDS011;42217;50.422;7.210;2023-04-07T14:30:51;91.10;;;86.13;;